PILOTS ONLINE: 154    ATC ONLINE: 13

KTRM

Jacqueline Cochran Regional Airport

Location

City Palm Springs
Country  United States
Latitude 33° 37' 36" N
Longitude 116° 9' 36" W
Elevation -115 ft
Type Medium Airport

Map

Weather

METAR
2014/10/21 06:52
KTRM 210652Z AUTO 32009KT 10SM CLR 26/13 A2976 RMK AO2 SLP080 T02610128 TSNO
TAF
2014/10/21 06:21
TAF KTRM 210520Z 2106/2206 VRB06KT P6SM FEW250

Runways

12/30 4995 ft / 100 ft
17/35 8500 ft / 150 ft

Outbound flights

Callsign Flying to Pilot ATD/STD ETA Aircraft

Inbound flights

Callsign Flying from Pilot ATD ETA Aircraft